Time;durP1;ratioP1;P1;durP2;ratioP2;P2;SDS_P1;SDS_P2;PMS_P1;PMS_P2;Temp;Humidity;BMP_temperature;BMP_pressure;BME280_temperature;BME280_humidity;BME280_pressure;Samples;Min_cycle;Max_cycle;Signal;HPM_P1;HPM_P2
2023/09/09 00:00:49;;;;;;;18.13;16.25;;;;;;;;;;4998783;28;20038;-74
2023/09/09 00:03:15;;;;;;;18.40;16.65;;;;;;;;;;4996474;28;20037;-74
2023/09/09 00:05:41;;;;;;;17.67;15.98;;;;;;;;;;4998589;28;20042;-74
2023/09/09 00:08:06;;;;;;;17.73;15.77;;;;;;;;;;5002666;28;20043;-74
2023/09/09 00:10:35;;;;;;;17.73;16.08;;;;;;;;;;5000457;28;20042;-74
2023/09/09 00:13:05;;;;;;;17.83;16.02;;;;;;;;;;4999266;28;20037;-75
2023/09/09 00:15:33;;;;;;;17.63;15.95;;;;;;;;;;5005481;28;20034;-74
2023/09/09 00:18:00;;;;;;;18.52;16.83;;;;;;;;;;5006298;28;20737;-74
2023/09/09 00:20:34;;;;;;;18.38;16.10;;;;;;;;;;5000623;28;20033;-74
2023/09/09 00:23:09;;;;;;;20.27;17.92;;;;;;;;;;5000908;28;21099;-74
2023/09/09 00:25:38;;;;;;;18.98;16.13;;;;;;;;;;5008629;28;20532;-74
2023/09/09 00:28:05;;;;;;;18.60;16.27;;;;;;;;;;5001245;28;20084;-74
2023/09/09 00:30:31;;;;;;;18.67;16.88;;;;;;;;;;5003447;28;20042;-74
2023/09/09 00:32:58;;;;;;;19.08;17.25;;;;;;;;;;5005978;28;20049;-74
2023/09/09 00:35:24;;;;;;;18.75;16.75;;;;;;;;;;5021931;28;20038;-74
2023/09/09 00:37:49;;;;;;;18.48;16.63;;;;;;;;;;5017679;28;20033;-74
2023/09/09 00:40:15;;;;;;;18.85;16.98;;;;;;;;;;5019479;28;20405;-74
2023/09/09 00:42:40;;;;;;;19.08;16.95;;;;;;;;;;5012470;28;20640;-74
2023/09/09 00:45:06;;;;;;;19.58;17.27;;;;;;;;;;5003942;28;20037;-74
2023/09/09 00:47:33;;;;;;;18.10;15.95;;;;;;;;;;4997699;28;20042;-73
2023/09/09 00:49:59;;;;;;;20.05;15.48;;;;;;;;;;5019040;28;20042;-74
2023/09/09 00:52:26;;;;;;;17.75;16.13;;;;;;;;;;5000849;28;20123;-74
2023/09/09 00:54:52;;;;;;;21.48;16.27;;;;;;;;;;4998209;28;20088;-74
2023/09/09 00:57:18;;;;;;;17.98;16.13;;;;;;;;;;4994422;28;20030;-74
2023/09/09 00:59:44;;;;;;;18.15;16.48;;;;;;;;;;5001177;28;20040;-74
2023/09/09 01:02:10;;;;;;;18.40;16.48;;;;;;;;;;5021674;28;20041;-74
2023/09/09 01:04:35;;;;;;;18.35;16.40;;;;;;;;;;4998353;28;20099;-74
2023/09/09 01:07:02;;;;;;;18.77;16.98;;;;;;;;;;5016907;28;20041;-74
2023/09/09 01:09:30;;;;;;;18.40;16.23;;;;;;;;;;5017213;28;20034;-74
2023/09/09 01:11:56;;;;;;;20.37;17.63;;;;;;;;;;5002771;28;20132;-74
2023/09/09 01:14:22;;;;;;;20.08;17.08;;;;;;;;;;5018749;28;20179;-74
2023/09/09 01:16:51;;;;;;;18.13;16.35;;;;;;;;;;5002384;28;20034;-73
2023/09/09 01:19:23;;;;;;;23.55;16.83;;;;;;;;;;4993851;28;20729;-74
2023/09/09 01:21:50;;;;;;;18.10;16.30;;;;;;;;;;4997112;28;20030;-74
2023/09/09 01:24:16;;;;;;;19.85;17.95;;;;;;;;;;5001043;28;20112;-73
2023/09/09 01:26:43;;;;;;;20.88;18.77;;;;;;;;;;5006624;28;20175;-73
2023/09/09 01:29:09;;;;;;;21.05;18.83;;;;;;;;;;4989801;28;20099;-74
2023/09/09 01:31:35;;;;;;;20.92;18.60;;;;;;;;;;4999007;28;20401;-74
2023/09/09 01:34:01;;;;;;;20.40;17.73;;;;;;;;;;4999128;28;20042;-74
2023/09/09 01:36:27;;;;;;;20.30;18.13;;;;;;;;;;5014268;28;20033;-74
2023/09/09 01:38:52;;;;;;;19.40;17.58;;;;;;;;;;5000031;28;20044;-74
2023/09/09 01:41:18;;;;;;;21.65;18.27;;;;;;;;;;5014887;28;20089;-74
2023/09/09 01:43:43;;;;;;;20.73;18.15;;;;;;;;;;5017108;28;20065;-74
2023/09/09 01:46:09;;;;;;;20.10;18.08;;;;;;;;;;5014463;28;20026;-74
2023/09/09 01:48:36;;;;;;;20.63;18.60;;;;;;;;;;5006230;28;20049;-74
2023/09/09 01:51:03;;;;;;;19.90;17.80;;;;;;;;;;4999238;28;20062;-74
2023/09/09 01:53:28;;;;;;;21.13;18.95;;;;;;;;;;4998769;28;20077;-74
2023/09/09 01:55:56;;;;;;;20.35;18.25;;;;;;;;;;5002173;28;20034;-74
2023/09/09 01:58:22;;;;;;;23.73;18.77;;;;;;;;;;5004043;28;20038;-74
2023/09/09 02:00:48;;;;;;;20.65;18.65;;;;;;;;;;5016333;28;20037;-75
2023/09/09 02:03:13;;;;;;;22.38;20.00;;;;;;;;;;5001237;28;20065;-74
2023/09/09 02:05:39;;;;;;;21.08;18.90;;;;;;;;;;5000688;28;20030;-75
2023/09/09 02:08:05;;;;;;;20.88;18.67;;;;;;;;;;5019092;28;20037;-75
2023/09/09 02:10:31;;;;;;;21.08;19.00;;;;;;;;;;4999038;28;20129;-75
2023/09/09 02:12:56;;;;;;;22.08;19.75;;;;;;;;;;5003717;28;20167;-75
2023/09/09 02:15:22;;;;;;;23.75;20.50;;;;;;;;;;4983954;28;20513;-75
2023/09/09 02:17:48;;;;;;;23.42;20.92;;;;;;;;;;5000820;28;20409;-75
2023/09/09 02:20:13;;;;;;;23.70;20.60;;;;;;;;;;5004537;28;20084;-75
2023/09/09 02:22:39;;;;;;;22.63;20.23;;;;;;;;;;5020064;28;20109;-75
2023/09/09 02:25:06;;;;;;;23.33;20.80;;;;;;;;;;5004779;28;20516;-75
2023/09/09 02:27:32;;;;;;;22.33;19.92;;;;;;;;;;5021021;28;20117;-75
2023/09/09 02:29:58;;;;;;;23.10;20.67;;;;;;;;;;5014598;28;20117;-75
2023/09/09 02:32:23;;;;;;;26.17;20.73;;;;;;;;;;5004030;28;20180;-75
2023/09/09 02:34:50;;;;;;;23.63;21.17;;;;;;;;;;4989129;28;20394;-74
2023/09/09 02:37:17;;;;;;;27.15;20.50;;;;;;;;;;4996720;28;20038;-74
2023/09/09 02:39:47;;;;;;;24.10;21.58;;;;;;;;;;4999856;28;20021;-74
2023/09/09 02:42:15;;;;;;;23.23;19.95;;;;;;;;;;5002760;28;20113;-74
2023/09/09 02:44:41;;;;;;;23.67;20.73;;;;;;;;;;5002468;28;20026;-74
2023/09/09 02:47:08;;;;;;;23.90;21.48;;;;;;;;;;5017982;28;20045;-74
2023/09/09 02:49:38;;;;;;;29.23;20.73;;;;;;;;;;5003824;28;20490;-74
2023/09/09 02:52:04;;;;;;;23.90;20.58;;;;;;;;;;5016641;28;20030;-74
2023/09/09 02:54:29;;;;;;;23.88;20.27;;;;;;;;;;5001499;28;20434;-74
2023/09/09 02:56:56;;;;;;;22.75;20.35;;;;;;;;;;5002025;28;20538;-74
2023/09/09 02:59:23;;;;;;;23.35;20.83;;;;;;;;;;5004853;28;20034;-74
2023/09/09 03:01:49;;;;;;;22.85;20.55;;;;;;;;;;5016776;28;20038;-74
2023/09/09 03:04:15;;;;;;;23.73;21.33;;;;;;;;;;5024868;28;20086;-74
2023/09/09 03:06:41;;;;;;;24.17;20.17;;;;;;;;;;5028804;28;20032;-73
2023/09/09 03:09:06;;;;;;;23.60;21.23;;;;;;;;;;5048331;28;20023;-74
2023/09/09 03:11:32;;;;;;;25.42;20.67;;;;;;;;;;5048509;28;20054;-74
2023/09/09 03:13:59;;;;;;;24.02;21.52;;;;;;;;;;5033583;28;20049;-74
2023/09/09 03:16:24;;;;;;;23.73;21.35;;;;;;;;;;5050010;28;20082;-74
2023/09/09 03:18:50;;;;;;;23.10;20.70;;;;;;;;;;5016465;28;20076;-75
2023/09/09 03:21:16;;;;;;;20.90;18.83;;;;;;;;;;5022757;28;20041;-75
2023/09/09 03:23:42;;;;;;;22.05;19.75;;;;;;;;;;5005227;28;20041;-74
2023/09/09 03:26:09;;;;;;;22.70;18.52;;;;;;;;;;5021134;28;20096;-74
2023/09/09 03:28:34;;;;;;;21.40;19.20;;;;;;;;;;5020433;28;20587;-75
2023/09/09 03:31:00;;;;;;;21.92;19.73;;;;;;;;;;5002542;28;20480;-75
2023/09/09 03:33:30;;;;;;;22.05;19.85;;;;;;;;;;5007862;28;20628;-75
2023/09/09 03:35:56;;;;;;;23.55;19.45;;;;;;;;;;4999328;28;20034;-75
2023/09/09 03:38:22;;;;;;;21.60;19.33;;;;;;;;;;5004217;28;20034;-75
2023/09/09 03:40:48;;;;;;;24.67;20.25;;;;;;;;;;5000195;28;20091;-75
2023/09/09 03:43:14;;;;;;;22.60;20.38;;;;;;;;;;5019892;28;20121;-75
2023/09/09 03:45:40;;;;;;;23.08;19.58;;;;;;;;;;4983621;28;20038;-74
2023/09/09 03:48:06;;;;;;;21.92;18.52;;;;;;;;;;5004779;28;20099;-74
2023/09/09 03:50:32;;;;;;;20.13;18.00;;;;;;;;;;4998709;28;20068;-74
2023/09/09 03:52:59;;;;;;;21.38;19.13;;;;;;;;;;5001891;28;20496;-75
2023/09/09 03:55:25;;;;;;;20.05;17.75;;;;;;;;;;5000895;28;20038;-74
2023/09/09 03:57:52;;;;;;;20.95;18.00;;;;;;;;;;5004380;28;20042;-75
2023/09/09 04:00:18;;;;;;;21.00;19.00;;;;;;;;;;5003888;28;20714;-75
2023/09/09 04:02:45;;;;;;;20.60;18.48;;;;;;;;;;5003454;28;20849;-75
2023/09/09 04:05:12;;;;;;;26.17;20.40;;;;;;;;;;5000674;28;20037;-74
2023/09/09 04:07:37;;;;;;;24.20;20.17;;;;;;;;;;5003358;28;20060;-74
2023/09/09 04:10:05;;;;;;;25.58;19.67;;;;;;;;;;5003016;28;20038;-75
2023/09/09 04:12:31;;;;;;;24.02;20.08;;;;;;;;;;5003234;28;20045;-74
2023/09/09 04:14:57;;;;;;;22.88;20.48;;;;;;;;;;5017999;28;20410;-74
2023/09/09 04:17:23;;;;;;;26.65;21.13;;;;;;;;;;4998451;28;20052;-75
2023/09/09 04:19:49;;;;;;;25.45;22.40;;;;;;;;;;5019698;28;20030;-75
2023/09/09 04:22:15;;;;;;;23.88;20.45;;;;;;;;;;5000786;28;20706;-75
2023/09/09 04:24:40;;;;;;;23.08;20.10;;;;;;;;;;5000417;28;20068;-75
2023/09/09 04:27:06;;;;;;;27.00;23.27;;;;;;;;;;5000708;28;20038;-76
2023/09/09 04:29:32;;;;;;;26.02;23.10;;;;;;;;;;5002818;28;20041;-75
2023/09/09 04:31:58;;;;;;;23.88;20.80;;;;;;;;;;5002153;28;20045;-75
2023/09/09 04:34:24;;;;;;;25.95;21.95;;;;;;;;;;4998280;28;20064;-74
2023/09/09 04:36:49;;;;;;;26.88;22.50;;;;;;;;;;4999879;28;20113;-74
2023/09/09 04:39:16;;;;;;;24.67;21.30;;;;;;;;;;5000619;28;20604;-74
2023/09/09 04:41:43;;;;;;;26.05;22.73;;;;;;;;;;5000846;28;20034;-74
2023/09/09 04:44:10;;;;;;;26.80;23.95;;;;;;;;;;4984338;28;20144;-74
2023/09/09 04:46:37;;;;;;;24.83;21.63;;;;;;;;;;5002838;28;20044;-73
2023/09/09 04:49:03;;;;;;;25.63;22.83;;;;;;;;;;4996087;28;20034;-74
2023/09/09 04:51:29;;;;;;;26.77;22.80;;;;;;;;;;5018089;28;20095;-77
2023/09/09 04:53:57;;;;;;;26.52;22.38;;;;;;;;;;5000491;28;20632;-76
2023/09/09 04:56:23;;;;;;;24.33;21.67;;;;;;;;;;5014437;28;20038;-76
2023/09/09 04:58:50;;;;;;;24.67;21.55;;;;;;;;;;5014980;28;20072;-77
2023/09/09 05:01:16;;;;;;;29.92;23.13;;;;;;;;;;5017641;28;20110;-75
2023/09/09 05:03:41;;;;;;;24.63;22.00;;;;;;;;;;4999397;28;20552;-75
2023/09/09 05:06:07;;;;;;;27.50;20.85;;;;;;;;;;5003607;28;20034;-75
2023/09/09 05:08:33;;;;;;;26.50;22.20;;;;;;;;;;5020963;28;20042;-75
2023/09/09 05:10:58;;;;;;;20.98;18.75;;;;;;;;;;5004811;28;22307;-74
2023/09/09 05:13:25;;;;;;;25.23;21.13;;;;;;;;;;5001275;28;20033;-74
2023/09/09 05:15:51;;;;;;;24.33;21.52;;;;;;;;;;4999883;28;20063;-75
2023/09/09 05:18:17;;;;;;;23.52;20.48;;;;;;;;;;4999839;28;20034;-74
2023/09/09 05:20:43;;;;;;;23.95;21.42;;;;;;;;;;5012324;28;20042;-74
2023/09/09 05:23:09;;;;;;;24.83;21.45;;;;;;;;;;5008672;28;20037;-75
2023/09/09 05:25:36;;;;;;;23.17;20.85;;;;;;;;;;5003278;28;20119;-75
2023/09/09 05:28:02;;;;;;;24.17;20.48;;;;;;;;;;4999281;28;20113;-75
2023/09/09 05:30:28;;;;;;;21.60;19.25;;;;;;;;;;5004199;28;20049;-74
2023/09/09 05:32:54;;;;;;;26.48;22.63;;;;;;;;;;5018159;28;20034;-75
2023/09/09 05:35:19;;;;;;;22.52;20.25;;;;;;;;;;5002831;28;20045;-74
2023/09/09 05:37:45;;;;;;;25.30;19.30;;;;;;;;;;4995682;28;20029;-75
2023/09/09 05:40:12;;;;;;;22.48;20.02;;;;;;;;;;4999249;28;20033;-74
2023/09/09 05:42:38;;;;;;;23.15;20.40;;;;;;;;;;5001607;28;20124;-75
2023/09/09 05:45:06;;;;;;;24.05;20.60;;;;;;;;;;4992942;28;20472;-74
2023/09/09 05:47:32;;;;;;;23.13;20.27;;;;;;;;;;5013925;28;20468;-74
2023/09/09 05:49:58;;;;;;;24.17;21.63;;;;;;;;;;4999291;28;20045;-74
2023/09/09 05:52:23;;;;;;;24.10;20.90;;;;;;;;;;5017304;28;20108;-75
2023/09/09 05:54:50;;;;;;;23.35;20.95;;;;;;;;;;4998767;28;20073;-75
2023/09/09 05:57:16;;;;;;;22.88;20.33;;;;;;;;;;5015109;28;20053;-74
2023/09/09 05:59:41;;;;;;;24.25;21.63;;;;;;;;;;5004210;28;20633;-74
2023/09/09 06:02:09;;;;;;;21.83;19.27;;;;;;;;;;5000222;28;20057;-75
2023/09/09 06:04:35;;;;;;;21.63;19.42;;;;;;;;;;4984705;28;20076;-74
2023/09/09 06:07:00;;;;;;;22.80;20.02;;;;;;;;;;5003242;28;20033;-75
2023/09/09 06:09:26;;;;;;;21.35;19.20;;;;;;;;;;5009483;28;20041;-74
2023/09/09 06:11:52;;;;;;;21.40;19.10;;;;;;;;;;5031962;28;20181;-74
2023/09/09 06:14:18;;;;;;;24.90;19.42;;;;;;;;;;5015750;28;20060;-75
2023/09/09 06:16:43;;;;;;;23.02;20.65;;;;;;;;;;5011679;28;20030;-75
2023/09/09 06:19:09;;;;;;;21.85;19.65;;;;;;;;;;5011149;28;20445;-75
2023/09/09 06:21:35;;;;;;;22.05;19.75;;;;;;;;;;5003276;28;20415;-74
2023/09/09 06:24:00;;;;;;;20.73;18.80;;;;;;;;;;4999318;28;20031;-74
2023/09/09 06:26:32;;;;;;;20.85;18.77;;;;;;;;;;5010655;28;20037;-74
2023/09/09 06:28:58;;;;;;;18.70;16.58;;;;;;;;;;5011891;28;20033;-75
2023/09/09 06:31:24;;;;;;;20.90;18.85;;;;;;;;;;5014965;28;20037;-75
2023/09/09 06:33:50;;;;;;;21.52;19.50;;;;;;;;;;5001550;28;20038;-75
2023/09/09 06:36:22;;;;;;;22.58;19.75;;;;;;;;;;5014233;28;20741;-75
2023/09/09 06:38:50;;;;;;;21.38;19.23;;;;;;;;;;5001949;28;20041;-74
2023/09/09 06:41:15;;;;;;;21.55;19.02;;;;;;;;;;5001305;28;20034;-74
2023/09/09 06:43:44;;;;;;;19.20;16.63;;;;;;;;;;4998214;28;20085;-74
2023/09/09 06:46:10;;;;;;;18.88;17.00;;;;;;;;;;5000194;28;20045;-74
2023/09/09 06:48:35;;;;;;;18.60;16.75;;;;;;;;;;5007327;28;20022;-74
2023/09/09 06:51:02;;;;;;;19.88;17.98;;;;;;;;;;5020827;28;20038;-75
2023/09/09 06:53:28;;;;;;;19.80;17.83;;;;;;;;;;5006465;28;20072;-75
2023/09/09 06:55:54;;;;;;;19.15;17.23;;;;;;;;;;5001689;28;20065;-75
2023/09/09 06:58:19;;;;;;;17.15;15.52;;;;;;;;;;5001232;28;20072;-74
2023/09/09 07:00:52;;;;;;;16.83;15.32;;;;;;;;;;4997555;28;20044;-75
2023/09/09 07:03:21;;;;;;;17.17;15.38;;;;;;;;;;5006903;28;20255;-75
2023/09/09 07:05:46;;;;;;;;;;;;;;;;;;5006891;28;20030;-75
2023/09/09 07:08:12;;;;;;;17.00;15.07;;;;;;;;;;5003379;28;19917;-76
2023/09/09 07:10:38;;;;;;;16.20;14.57;;;;;;;;;;5007806;28;20065;-74
2023/09/09 07:13:03;;;;;;;15.20;13.70;;;;;;;;;;5004354;28;20065;-75
2023/09/09 07:15:29;;;;;;;15.95;14.30;;;;;;;;;;5011378;28;20037;-75
2023/09/09 07:17:55;;;;;;;15.73;14.23;;;;;;;;;;5006595;28;20057;-75
2023/09/09 07:20:21;;;;;;;14.60;13.32;;;;;;;;;;5007612;28;20132;-75
2023/09/09 07:22:47;;;;;;;15.35;13.75;;;;;;;;;;5000498;28;20091;-75
2023/09/09 07:25:12;;;;;;;14.05;12.85;;;;;;;;;;5002814;28;20030;-75
2023/09/09 07:27:38;;;;;;;14.55;13.07;;;;;;;;;;5006807;28;20038;-75
2023/09/09 07:30:05;;;;;;;15.38;14.00;;;;;;;;;;5003296;28;20045;-75
2023/09/09 07:32:31;;;;;;;14.65;13.25;;;;;;;;;;5000543;28;20041;-75
2023/09/09 07:34:56;;;;;;;14.25;12.95;;;;;;;;;;4998711;28;20429;-75
2023/09/09 07:37:22;;;;;;;14.77;13.55;;;;;;;;;;4993675;28;20045;-75
2023/09/09 07:39:52;;;;;;;14.77;13.48;;;;;;;;;;4993828;28;20042;-75
2023/09/09 07:42:18;;;;;;;14.82;13.48;;;;;;;;;;4999284;28;20633;-76
2023/09/09 07:44:44;;;;;;;14.50;12.95;;;;;;;;;;4996119;28;20028;-76
2023/09/09 07:47:11;;;;;;;13.70;12.60;;;;;;;;;;4997873;28;20438;-76
2023/09/09 07:49:36;;;;;;;15.80;12.45;;;;;;;;;;5000440;28;20484;-76
2023/09/09 07:52:03;;;;;;;13.90;12.52;;;;;;;;;;5003736;28;20033;-76
2023/09/09 07:54:29;;;;;;;14.45;12.95;;;;;;;;;;5002317;28;20564;-76
2023/09/09 07:56:55;;;;;;;12.80;11.65;;;;;;;;;;4996468;28;20063;-76
2023/09/09 07:59:21;;;;;;;13.65;12.35;;;;;;;;;;5001371;28;20026;-76
2023/09/09 08:01:47;;;;;;;14.20;12.50;;;;;;;;;;5000247;28;20085;-76
2023/09/09 08:04:13;;;;;;;14.15;12.75;;;;;;;;;;5002601;28;20065;-76
2023/09/09 08:06:39;;;;;;;13.60;12.35;;;;;;;;;;4999260;28;20088;-76
2023/09/09 08:09:05;;;;;;;14.57;11.88;;;;;;;;;;4998186;28;20061;-76
2023/09/09 08:11:30;;;;;;;13.13;11.82;;;;;;;;;;4992727;28;20607;-76
2023/09/09 08:13:56;;;;;;;13.48;11.63;;;;;;;;;;5001566;28;20684;-76
2023/09/09 08:16:21;;;;;;;13.05;11.93;;;;;;;;;;4996926;28;20041;-76
2023/09/09 08:18:47;;;;;;;13.13;11.77;;;;;;;;;;4998514;28;20044;-76
2023/09/09 08:21:13;;;;;;;13.75;11.80;;;;;;;;;;5016360;28;20049;-76
2023/09/09 08:23:39;;;;;;;13.48;11.18;;;;;;;;;;4997801;28;20050;-76
2023/09/09 08:26:05;;;;;;;13.23;11.85;;;;;;;;;;4987636;28;20021;-76
2023/09/09 08:28:30;;;;;;;13.75;11.70;;;;;;;;;;4993564;28;20436;-76
2023/09/09 08:30:59;;;;;;;12.93;11.65;;;;;;;;;;4990824;28;20034;-75
2023/09/09 08:33:25;;;;;;;13.38;11.90;;;;;;;;;;4995308;28;20038;-76
2023/09/09 08:35:51;;;;;;;13.13;11.77;;;;;;;;;;5011019;28;20030;-76
2023/09/09 08:38:17;;;;;;;12.60;11.48;;;;;;;;;;4992537;28;20033;-75
2023/09/09 08:41:11;;;;;;;12.77;11.45;;;;;;;;;;4991459;28;20429;-76
2023/09/09 08:44:06;;;;;;;12.45;11.38;;;;;;;;;;4994516;28;20029;-75
2023/09/09 08:46:31;;;;;;;12.02;10.93;;;;;;;;;;4999608;28;20068;-76
2023/09/09 08:48:58;;;;;;;12.13;11.13;;;;;;;;;;4994384;28;20171;-76
2023/09/09 08:51:36;;;;;;;12.80;11.48;;;;;;;;;;4992956;28;20116;-76
2023/09/09 08:54:03;;;;;;;11.98;10.82;;;;;;;;;;5000676;28;20049;-76
2023/09/09 08:56:29;;;;;;;12.77;11.57;;;;;;;;;;4992728;28;20112;-76
2023/09/09 08:58:55;;;;;;;12.07;11.02;;;;;;;;;;5000117;28;20129;-76
2023/09/09 09:01:22;;;;;;;13.35;11.63;;;;;;;;;;5002826;28;20325;-76
2023/09/09 09:03:50;;;;;;;12.13;10.95;;;;;;;;;;5008206;28;20045;-75
2023/09/09 09:06:16;;;;;;;12.40;11.18;;;;;;;;;;5003092;28;20041;-76
2023/09/09 09:08:42;;;;;;;11.48;10.40;;;;;;;;;;5005114;28;20042;-76
2023/09/09 09:11:11;;;;;;;13.15;11.95;;;;;;;;;;4982084;28;20102;-75
2023/09/09 09:13:37;;;;;;;13.43;11.02;;;;;;;;;;4996242;28;20049;-76
2023/09/09 09:16:03;;;;;;;12.05;10.88;;;;;;;;;;5000313;28;20038;-76
2023/09/09 09:18:28;;;;;;;12.70;11.13;;;;;;;;;;4985195;28;20044;-75
2023/09/09 09:21:08;;;;;;;17.02;11.10;;;;;;;;;;4998034;28;20049;-76
2023/09/09 09:23:41;;;;;;;11.60;10.50;;;;;;;;;;4998574;28;20129;-75
2023/09/09 09:26:22;;;;;;;12.70;11.25;;;;;;;;;;5011411;28;20041;-75
2023/09/09 09:28:47;;;;;;;12.07;10.77;;;;;;;;;;4994501;28;20132;-76
2023/09/09 09:31:23;;;;;;;12.15;11.02;;;;;;;;;;5001017;28;20121;-73
2023/09/09 09:33:52;;;;;;;12.32;11.00;;;;;;;;;;4999389;28;20515;-73
2023/09/09 09:36:22;;;;;;;12.48;11.27;;;;;;;;;;4994870;28;20112;-73
2023/09/09 09:38:51;;;;;;;12.68;11.32;;;;;;;;;;4999347;28;20041;-76
2023/09/09 09:41:18;;;;;;;12.18;11.07;;;;;;;;;;4995806;28;20081;-76
2023/09/09 09:43:45;;;;;;;12.13;11.02;;;;;;;;;;4997684;28;20096;-75
2023/09/09 09:46:22;;;;;;;12.93;10.73;;;;;;;;;;5000869;28;20351;-76
2023/09/09 09:48:48;;;;;;;13.35;11.20;;;;;;;;;;4997598;28;20157;-76
2023/09/09 09:51:14;;;;;;;11.73;10.60;;;;;;;;;;4993422;28;20030;-75
2023/09/09 09:53:49;;;;;;;12.40;10.50;;;;;;;;;;4999841;28;20934;-76
2023/09/09 09:56:15;;;;;;;12.85;11.57;;;;;;;;;;4994713;28;20045;-76
2023/09/09 09:58:43;;;;;;;12.10;11.00;;;;;;;;;;5008165;28;20124;-74
2023/09/09 10:01:10;;;;;;;12.40;10.95;;;;;;;;;;4998970;28;20386;-75
2023/09/09 10:04:00;;;;;;;12.15;10.55;;;;;;;;;;4999598;28;20522;-73
2023/09/09 10:06:28;;;;;;;12.13;10.93;;;;;;;;;;4996857;28;20393;-73
2023/09/09 10:09:06;;;;;;;12.05;10.90;;;;;;;;;;4993732;28;20081;-74
2023/09/09 10:11:37;;;;;;;11.23;10.32;;;;;;;;;;4992145;28;20037;-74
2023/09/09 10:14:14;;;;;;;10.70;9.60;;;;;;;;;;4996617;28;20049;-74
2023/09/09 10:16:41;;;;;;;10.95;9.88;;;;;;;;;;5002946;28;20181;-73
2023/09/09 10:19:08;;;;;;;11.43;10.38;;;;;;;;;;4995356;28;20034;-74
2023/09/09 10:21:34;;;;;;;11.88;9.55;;;;;;;;;;4997721;28;20033;-74
2023/09/09 10:24:06;;;;;;;10.43;9.52;;;;;;;;;;4996693;28;20127;-74
2023/09/09 10:26:35;;;;;;;10.45;9.45;;;;;;;;;;4994462;28;20137;-74
2023/09/09 10:29:02;;;;;;;11.05;9.90;;;;;;;;;;4988589;28;20100;-74
2023/09/09 10:31:29;;;;;;;9.77;8.98;;;;;;;;;;4998320;28;20029;-74
2023/09/09 10:33:57;;;;;;;11.05;9.95;;;;;;;;;;4997039;28;20497;-74
2023/09/09 10:36:24;;;;;;;10.85;9.95;;;;;;;;;;4998334;28;20026;-74
2023/09/09 10:38:51;;;;;;;10.50;9.60;;;;;;;;;;4994814;28;20042;-74
2023/09/09 10:41:17;;;;;;;11.00;10.02;;;;;;;;;;5005681;28;20037;-74
2023/09/09 10:43:42;;;;;;;11.13;10.13;;;;;;;;;;4998310;28;20030;-74
2023/09/09 10:46:08;;;;;;;12.38;10.57;;;;;;;;;;4998927;28;20037;-74
2023/09/09 10:48:34;;;;;;;10.60;9.48;;;;;;;;;;4996918;28;20054;-74
2023/09/09 10:51:05;;;;;;;10.48;9.45;;;;;;;;;;4993916;28;20038;-74
2023/09/09 10:53:32;;;;;;;11.57;9.27;;;;;;;;;;4994360;28;20041;-74
2023/09/09 10:55:59;;;;;;;11.73;9.55;;;;;;;;;;4996543;28;20038;-74
2023/09/09 10:58:33;;;;;;;15.73;9.07;;;;;;;;;;5004837;28;20042;-74
2023/09/09 11:01:02;;;;;;;9.75;8.60;;;;;;;;;;4995353;28;20057;-74
2023/09/09 11:03:38;;;;;;;8.70;7.90;;;;;;;;;;4994444;28;20116;-74
2023/09/09 11:06:06;;;;;;;10.68;9.27;;;;;;;;;;5017400;28;20612;-74
2023/09/09 11:08:43;;;;;;;9.95;8.93;;;;;;;;;;5001245;28;20044;-74
2023/09/09 11:11:13;;;;;;;13.18;8.73;;;;;;;;;;4994335;28;20029;-74
2023/09/09 11:13:41;;;;;;;14.52;8.77;;;;;;;;;;4996980;28;20041;-74
2023/09/09 11:16:06;;;;;;;10.10;9.07;;;;;;;;;;4996350;28;20034;-74
2023/09/09 11:18:34;;;;;;;12.80;8.82;;;;;;;;;;5001220;28;20040;-74
2023/09/09 11:21:01;;;;;;;12.38;9.20;;;;;;;;;;4993993;28;20046;-75
2023/09/09 11:23:28;;;;;;;12.07;9.30;;;;;;;;;;4998545;28;20041;-75
2023/09/09 11:25:55;;;;;;;9.88;8.30;;;;;;;;;;5001112;28;20038;-75
2023/09/09 11:28:22;;;;;;;11.48;8.57;;;;;;;;;;5000056;28;20044;-75
2023/09/09 11:30:47;;;;;;;11.85;8.48;;;;;;;;;;4995537;28;20030;-74
2023/09/09 11:33:25;;;;;;;11.93;8.80;;;;;;;;;;5001907;28;20091;-74
2023/09/09 11:35:51;;;;;;;11.80;8.50;;;;;;;;;;4995145;28;20528;-74
2023/09/09 11:38:17;;;;;;;10.85;8.63;;;;;;;;;;5004213;28;20101;-74
2023/09/09 11:40:44;;;;;;;11.23;8.90;;;;;;;;;;4997473;28;20030;-75
2023/09/09 11:43:10;;;;;;;14.05;8.70;;;;;;;;;;4981780;28;20045;-75
2023/09/09 11:45:36;;;;;;;10.02;8.43;;;;;;;;;;4999318;28;20030;-75
2023/09/09 11:48:03;;;;;;;11.25;8.93;;;;;;;;;;5018744;28;20038;-74
2023/09/09 11:50:39;;;;;;;11.02;9.10;;;;;;;;;;4999844;28;20049;-75
2023/09/09 11:53:05;;;;;;;11.27;9.85;;;;;;;;;;5004958;28;20034;-75
2023/09/09 11:55:30;;;;;;;10.70;9.25;;;;;;;;;;4998719;28;20688;-75
2023/09/09 11:57:56;;;;;;;18.08;9.40;;;;;;;;;;5001944;28;20038;-75
2023/09/09 12:00:22;;;;;;;13.63;10.00;;;;;;;;;;5000423;28;20083;-75
2023/09/09 12:02:48;;;;;;;12.18;9.75;;;;;;;;;;4997162;28;20042;-75
2023/09/09 12:05:14;;;;;;;17.95;9.82;;;;;;;;;;4999574;28;20105;-75
2023/09/09 12:07:42;;;;;;;10.73;9.52;;;;;;;;;;5002199;28;20044;-75
2023/09/09 12:10:12;;;;;;;11.63;9.25;;;;;;;;;;5002426;28;20841;-75
2023/09/09 12:12:41;;;;;;;13.77;9.50;;;;;;;;;;4993884;28;20044;-75
2023/09/09 12:15:08;;;;;;;;;;;;;;;;;;4998860;28;20575;-75
2023/09/09 12:17:36;;;;;;;15.23;9.73;;;;;;;;;;4995043;28;19917;-74
2023/09/09 12:20:08;;;;;;;11.75;9.68;;;;;;;;;;4998051;28;20034;-74
2023/09/09 12:22:35;;;;;;;11.45;10.25;;;;;;;;;;4994360;28;20036;-74
2023/09/09 12:25:05;;;;;;;11.27;9.93;;;;;;;;;;4994712;28;20030;-76
2023/09/09 12:27:44;;;;;;;24.23;10.02;;;;;;;;;;4996188;28;20386;-74
2023/09/09 12:30:39;;;;;;;12.90;9.90;;;;;;;;;;4995471;28;20041;-75
2023/09/09 12:33:09;;;;;;;11.15;9.75;;;;;;;;;;4995094;28;20763;-75
2023/09/09 12:35:35;;;;;;;14.82;9.80;;;;;;;;;;4995751;28;20033;-74
2023/09/09 12:38:02;;;;;;;11.30;9.88;;;;;;;;;;4992674;28;20092;-74
2023/09/09 12:40:29;;;;;;;14.13;9.95;;;;;;;;;;4988949;28;20029;-74
2023/09/09 12:42:57;;;;;;;15.30;9.73;;;;;;;;;;4993015;28;20033;-75
2023/09/09 12:45:24;;;;;;;10.88;9.32;;;;;;;;;;4994056;28;20093;-74
2023/09/09 12:47:51;;;;;;;15.20;10.13;;;;;;;;;;4991646;28;20117;-75
2023/09/09 12:50:17;;;;;;;14.10;9.90;;;;;;;;;;4987790;28;20738;-75
2023/09/09 12:52:46;;;;;;;12.13;9.88;;;;;;;;;;4989023;28;20046;-75
2023/09/09 12:55:13;;;;;;;14.57;10.90;;;;;;;;;;4997288;28;20041;-76
2023/09/09 12:57:39;;;;;;;12.03;10.30;;;;;;;;;;5001257;28;20046;-75
2023/09/09 13:00:06;;;;;;;12.40;9.88;;;;;;;;;;4992529;28;20771;-75
2023/09/09 13:02:31;;;;;;;18.10;10.30;;;;;;;;;;4991656;28;20049;-75
2023/09/09 13:04:57;;;;;;;11.13;9.82;;;;;;;;;;5000729;28;20037;-75
2023/09/09 13:07:22;;;;;;;12.65;9.88;;;;;;;;;;5002233;28;20030;-75
2023/09/09 13:09:48;;;;;;;11.57;10.30;;;;;;;;;;4996720;28;20148;-75
2023/09/09 13:12:13;;;;;;;12.80;10.40;;;;;;;;;;5002556;28;20041;-75
2023/09/09 13:14:39;;;;;;;15.65;10.75;;;;;;;;;;5007174;28;20131;-75
2023/09/09 13:17:04;;;;;;;13.32;10.45;;;;;;;;;;5005985;28;20501;-75
2023/09/09 13:19:30;;;;;;;11.85;10.70;;;;;;;;;;5008532;28;20037;-75
2023/09/09 13:21:55;;;;;;;16.30;10.93;;;;;;;;;;5007673;28;20038;-75
2023/09/09 13:24:21;;;;;;;11.80;10.15;;;;;;;;;;5016035;28;20041;-75
2023/09/09 13:26:46;;;;;;;11.80;10.60;;;;;;;;;;5007350;28;20053;-76
2023/09/09 13:29:12;;;;;;;14.65;10.52;;;;;;;;;;5011305;28;20428;-76
2023/09/09 13:31:37;;;;;;;13.43;10.55;;;;;;;;;;5008956;28;20563;-76
2023/09/09 13:34:03;;;;;;;16.20;10.70;;;;;;;;;;5014292;28;20143;-76
2023/09/09 13:36:29;;;;;;;13.38;10.15;;;;;;;;;;5006091;28;20048;-76
2023/09/09 13:38:55;;;;;;;15.57;10.45;;;;;;;;;;5010828;28;20717;-76
2023/09/09 13:41:26;;;;;;;11.93;10.45;;;;;;;;;;5009647;28;20414;-76
2023/09/09 13:43:51;;;;;;;15.80;10.25;;;;;;;;;;5008474;28;20046;-76
2023/09/09 13:46:17;;;;;;;15.90;10.30;;;;;;;;;;5011156;28;20037;-75
2023/09/09 13:48:42;;;;;;;11.55;9.98;;;;;;;;;;5015930;28;20078;-76
2023/09/09 13:51:10;;;;;;;12.23;9.88;;;;;;;;;;5007806;28;20059;-76
2023/09/09 13:53:35;;;;;;;11.63;10.38;;;;;;;;;;5006849;28;20044;-76
2023/09/09 13:56:01;;;;;;;12.00;10.40;;;;;;;;;;5011418;28;20041;-76
2023/09/09 13:58:26;;;;;;;11.93;10.68;;;;;;;;;;5007712;28;20506;-75
2023/09/09 14:00:52;;;;;;;14.65;10.50;;;;;;;;;;5012522;28;20030;-75
2023/09/09 14:03:17;;;;;;;11.50;10.32;;;;;;;;;;5012061;28;20034;-75
2023/09/09 14:05:43;;;;;;;11.77;10.35;;;;;;;;;;5004841;28;20030;-75
2023/09/09 14:08:08;;;;;;;11.02;9.82;;;;;;;;;;5009962;28;20041;-74
2023/09/09 14:10:34;;;;;;;16.15;10.07;;;;;;;;;;5017273;28;20046;-75
2023/09/09 14:12:59;;;;;;;11.65;9.95;;;;;;;;;;5012112;28;20038;-75
2023/09/09 14:15:25;;;;;;;11.45;10.35;;;;;;;;;;5017584;28;20065;-74
2023/09/09 14:17:51;;;;;;;13.55;10.10;;;;;;;;;;5013458;28;20069;-75
2023/09/09 14:20:16;;;;;;;11.68;10.07;;;;;;;;;;5014966;28;20125;-75